Latest Weather Observations for Witchcliffe

IDW60801

Issued at 12:05 pm WST Saturday 2 August 2014 (issued every 30 minutes, with the page automatically refreshed every 10 minutes)

About weather observations | Map of weather stations | Latest weather observations for WA | Other Formats
Station Details ID: 009746 Name: WITCHCLIFFE Lat: -34.03 Lon: 115.10 Height: 80.0 m
Data from the previous 72 hours. | See also: Recent months at Witchcliffe
Date/Time
WST
Temp
°C
App
Temp
°C
Dew
Point
Rel
Hum
%
Delta-T
°C
Wind Press
QNH
hPa
Press
MSL
hPa
Rain
since 9 am
mm
Dir
 
Spd
km/h
Gust
km/h
Spd
kts
Gust
kts
02/12:00pm 15.4 11.2 5.9 53 4.5 S 17 26 9 14 1027.3 1027.5 0.0
02/11:30am 15.2 11.1 6.2 55 4.3 S 17 26 9 14 1027.3 - 0.0
02/11:00am 14.6 10.5 7.9 64 3.3 S 19 32 10 17 1027.3 - 0.0
02/10:30am 15.1 11.8 7.9 62 3.6 S 15 22 8 12 1027.0 - 0.0
02/10:00am 14.7 11.3 9.1 69 2.9 SSW 17 24 9 13 1026.6 - 0.0
02/09:30am 13.6 12.1 10.6 82 1.6 S 9 13 5 7 1026.3 - 0.0
02/09:00am 12.7 13.4 12.1 96 0.3 CALM 0 0 0 0 1026.2 1026.4 2.0
02/08:30am 11.6 12.0 11.4 99 0.1 CALM 0 0 0 0 1025.8 - 2.0
02/08:00am 11.1 11.4 10.9 99 0.1 CALM 0 0 0 0 1025.5 - 2.0
02/07:30am 11.0 11.3 10.8 99 0.1 CALM 0 0 0 0 1024.9 - 2.0
02/07:00am 11.1 11.0 10.9 99 0.1 SSE 2 9 1 5 1024.5 - 2.0
02/06:30am 11.2 9.0 10.7 97 0.3 S 13 22 7 12 1024.2 - 1.8
02/06:00am 11.6 8.4 11.1 97 0.3 SSW 19 26 10 14 1023.6 1023.7 1.8
02/05:30am 12.9 7.9 11.0 88 1.0 SSW 28 43 15 23 1022.7 - 1.4
02/05:00am 15.6 12.3 8.1 61 3.8 WNW 15 28 8 15 1021.9 - 0.0
02/04:30am 15.1 12.5 7.6 61 3.7 WNW 11 19 6 10 1021.6 - 0.0
02/04:00am 13.7 11.5 9.4 75 2.2 N 11 19 6 10 1021.7 - 0.0
02/03:30am 13.5 11.3 9.4 76 2.1 N 11 15 6 8 1021.7 - 0.0
02/03:00am 14.0 11.2 8.6 70 2.7 NNW 13 20 7 11 1021.9 1022.1 0.0
02/02:30am 14.5 11.4 7.3 62 3.6 NW 13 24 7 13 1022.3 - 0.0
02/02:00am 14.0 11.9 6.6 61 3.6 NW 7 13 4 7 1022.2 - 0.0
02/01:30am 14.3 11.5 7.1 62 3.5 NW 11 20 6 11 1022.2 - 0.0
02/01:00am 14.6 11.7 8.1 65 3.3 WNW 13 19 7 10 1022.5 - 0.0
02/12:30am 14.4 11.7 9.0 70 2.8 WNW 13 20 7 11 1022.8 - 0.0
02/12:00am 13.9 12.0 9.1 73 2.4 NW 9 19 5 10 1022.5 1022.7 0.0
 
Date/Time
WST
Temp
°C
App
Temp
°C
Dew
Point
Rel
Hum
%
Delta-T
°C
Wind Press
QNH
hPa
Press
MSL
hPa
Rain
since 9 am
mm
Dir
 
Spd
km/h
Gust
km/h
Spd
kts
Gust
kts
01/11:30pm 12.0 10.4 8.1 77 1.9 N 6 7 3 4 1022.8 - 0.0
01/11:00pm 11.6 9.7 7.7 77 1.9 N 7 9 4 5 1023.0 - 0.0
01/10:30pm 11.5 9.7 7.2 75 2.1 N 6 7 3 4 1023.3 - 0.0
01/10:00pm 11.8 9.8 7.1 73 2.3 NNW 7 9 4 5 1023.3 - 0.0
01/09:30pm 12.0 10.0 6.9 71 2.4 NNE 7 11 4 6 1023.0 - 0.0
01/09:00pm 11.6 9.6 7.1 74 2.2 N 7 9 4 5 1023.4 1023.5 0.0
01/08:30pm 11.7 9.5 6.4 70 2.5 NNE 7 11 4 6 1023.1 - 0.0
01/08:00pm 11.5 9.5 6.2 70 2.5 NE 6 13 3 7 1023.5 - 0.0
01/07:30pm 11.2 9.0 6.1 71 2.4 NE 7 13 4 7 1023.8 - 0.0
01/07:00pm 11.1 8.9 6.3 72 2.3 ENE 7 9 4 5 1023.9 - 0.0
01/06:30pm 10.3 9.5 6.5 77 1.8 CALM 0 2 0 1 1024.1 - 0.0
01/06:00pm 10.4 8.4 6.2 75 2.0 NE 6 9 3 5 1024.1 1024.2 0.0
01/05:30pm 10.3 8.2 5.7 73 2.1 N 6 9 3 5 1024.2 - 0.0
01/05:00pm 11.7 8.7 6.0 68 2.7 N 11 17 6 9 1024.2 - 0.0
01/04:30pm 13.2 9.4 5.9 61 3.5 N 15 20 8 11 1024.1 - 0.0
01/04:00pm 13.7 9.5 5.8 59 3.8 N 17 22 9 12 1024.0 - 0.0
01/03:30pm 13.9 9.2 5.3 56 4.0 N 19 26 10 14 1024.0 - 0.0
01/03:00pm 14.1 9.7 4.9 54 4.3 N 17 24 9 13 1024.0 1024.1 0.0
01/02:30pm 13.8 9.3 4.4 53 4.3 N 17 24 9 13 1024.2 - 0.0
01/02:00pm 13.9 10.0 5.5 57 4.0 NNE 15 24 8 13 1024.4 - 0.0
01/01:30pm 13.2 7.7 4.1 54 4.2 N 22 30 12 16 1024.6 - 0.0
01/01:00pm 13.0 8.2 4.4 56 3.9 N 19 30 10 16 1025.1 - 0.0
01/12:30pm 12.4 7.3 3.9 56 3.8 N 20 30 11 16 1025.7 - 0.0
01/12:00pm 12.6 7.9 5.1 60 3.5 N 19 24 10 13 1026.2 1026.4 0.0
01/11:30am 12.0 6.2 4.2 59 3.5 N 24 30 13 16 1026.7 - 0.0
01/11:00am 11.6 7.9 4.6 62 3.2 NE 13 19 7 10 1027.3 - 0.0
01/10:30am 10.9 7.1 4.1 63 3.0 NE 13 22 7 12 1027.7 - 0.0
01/10:00am 10.0 6.2 3.7 65 2.8 ENE 13 22 7 12 1027.9 - 0.0
01/09:30am 8.8 4.8 3.0 67 2.5 ENE 13 19 7 10 1028.0 - 0.0
01/09:00am 8.1 4.5 2.8 69 2.2 E 11 19 6 10 1028.2 1028.4 0.0
01/08:30am 7.2 4.3 2.5 72 2.0 E 7 13 4 7 1028.1 - 0.0
01/08:00am 5.8 2.9 2.4 79 1.4 ENE 7 11 4 6 1028.2 - 0.0
01/07:30am 4.2 1.3 2.4 88 0.7 ENE 7 11 4 6 1028.0 - 0.0
01/07:00am 3.1 1.3 1.3 88 0.7 CALM 0 0 0 0 1028.1 - 0.0
01/06:30am 2.9 1.1 1.0 87 0.7 CALM 0 0 0 0 1028.0 - 0.0
01/06:00am 3.1 1.2 0.7 84 0.9 CALM 0 0 0 0 1027.8 1028.0 0.0
01/05:30am 4.1 2.4 1.6 84 1.0 CALM 0 0 0 0 1027.7 - 0.0
01/05:00am 3.8 2.0 1.2 83 1.0 CALM 0 0 0 0 1027.6 - 0.0
01/04:30am 4.2 1.7 1.6 83 1.0 ESE 4 6 2 3 1027.8 - 0.0
01/04:00am 4.2 1.3 1.6 83 1.0 ESE 6 7 3 4 1027.7 - 0.0
01/03:30am 4.7 2.7 2.1 83 1.0 E 2 7 1 4 1027.6 - 0.0
01/03:00am 4.5 2.8 1.7 82 1.1 CALM 0 0 0 0 1027.8 1028.0 0.0
01/02:30am 5.0 3.3 1.7 79 1.3 CALM 0 0 0 0 1027.9 - 0.0
01/02:00am 5.5 2.7 2.0 78 1.4 E 6 9 3 5 1027.9 - 0.0
01/01:30am 5.8 3.0 2.3 78 1.4 E 6 9 3 5 1028.0 - 0.0
01/01:00am 5.9 3.0 2.4 78 1.4 E 7 9 4 5 1028.1 - 0.0
01/12:30am 5.5 3.5 2.5 81 1.2 E 2 9 1 5 1028.0 - 0.0
01/12:00am 5.6 4.1 2.8 82 1.1 CALM 0 4 0 2 1028.3 1028.5 0.0
 
Date/Time
WST
Temp
°C
App
Temp
°C
Dew
Point
Rel
Hum
%
Delta-T
°C
Wind Press
QNH
hPa
Press
MSL
hPa
Rain
since 9 am
mm
Dir
 
Spd
km/h
Gust
km/h
Spd
kts
Gust
kts
31/11:30pm 4.9 3.3 2.3 83 1.1 CALM 0 0 0 0 1028.6 - 0.0
31/11:00pm 5.4 3.9 2.8 83 1.1 CALM 0 0 0 0 1028.8 - 0.0
31/10:30pm 5.1 3.4 2.1 81 1.2 CALM 0 0 0 0 1029.0 - 0.0
31/10:00pm 5.9 4.3 2.4 78 1.4 CALM 0 0 0 0 1029.0 - 0.0
31/09:30pm 6.6 4.7 2.7 76 1.6 SSE 2 7 1 4 1029.0 - 0.0
31/09:00pm 6.9 5.0 2.6 74 1.8 SSE 2 9 1 5 1028.7 1028.9 0.0
31/08:30pm 7.6 4.9 2.9 72 2.0 SE 6 9 3 5 1028.7 - 0.0
31/08:00pm 7.4 5.1 2.9 73 1.9 SE 4 9 2 5 1028.7 - 0.0
31/07:30pm 7.6 6.0 2.3 69 2.2 CALM 0 0 0 0 1028.8 - 0.0
31/07:00pm 9.0 6.2 3.0 66 2.6 SSE 7 11 4 6 1028.7 - 0.0
31/06:30pm 9.2 6.4 3.2 66 2.6 SSE 7 11 4 6 1028.3 - 0.0
31/06:00pm 10.4 6.1 3.4 62 3.0 SSE 15 20 8 11 1028.1 1028.3 0.0
31/05:30pm 11.3 7.2 4.3 62 3.2 SSE 15 22 8 12 1027.8 - 0.0
31/05:00pm 11.3 7.1 3.8 60 3.3 SSE 15 20 8 11 1027.6 - 0.0
31/04:30pm 12.1 8.3 4.1 58 3.6 SSE 13 19 7 10 1027.4 - 0.0
31/04:00pm 12.3 8.4 3.3 54 4.0 SE 13 22 7 12 1027.3 - 0.0
31/03:30pm 12.3 7.2 3.0 53 4.1 S 19 26 10 14 1027.4 - 0.0
31/03:00pm 12.2 7.5 3.2 54 4.0 SSE 17 22 9 12 1027.4 1027.6 0.0
31/02:30pm 12.5 7.6 4.2 57 3.8 SSE 19 24 10 13 1027.3 - 0.0
31/02:00pm 12.6 8.3 3.3 53 4.1 SSE 15 24 8 13 1027.3 - 0.0
31/01:30pm 12.8 9.3 3.5 53 4.2 SE 11 15 6 8 1027.5 - 0.0
31/01:00pm 12.7 8.6 4.4 57 3.8 SSE 15 22 8 12 1027.6 - 0.0
31/12:30pm 13.0 8.9 4.4 56 3.9 SSE 15 24 8 13 1027.8 - 0.0
31/12:00pm 12.7 8.3 4.7 58 3.7 ESE 17 24 9 13 1027.9 1028.1 0.0
31/11:30am 12.3 8.0 3.3 54 4.0 SE 15 22 8 12 1028.3 - 0.0
31/11:00am 12.0 6.6 2.7 53 4.1 SSE 20 32 11 17 1028.5 - 0.0
31/10:30am 11.4 6.7 3.4 58 3.5 S 17 26 9 14 1028.4 - 0.0
31/10:00am 11.3 8.7 4.3 62 3.2 SSE 7 13 4 7 1028.1 - 0.0
31/09:30am 11.0 8.4 4.0 62 3.1 S 7 11 4 6 1028.0 - 0.0
31/09:00am 10.6 8.1 3.6 62 3.1 S 6 9 3 5 1027.7 1027.9 1.2
31/08:30am 10.3 7.6 3.6 63 2.9 S 7 11 4 6 1027.4 - 1.2
31/08:00am 10.2 6.7 3.5 63 2.9 SSE 11 13 6 7 1027.1 - 1.2
31/07:30am 10.2 5.9 3.5 63 2.9 S 15 22 8 12 1026.7 - 1.2
31/07:00am 10.2 6.7 3.5 63 2.9 S 11 17 6 9 1025.9 - 1.2
31/06:30am 10.3 5.9 2.9 60 3.2 S 15 22 8 12 1025.4 - 1.2
31/06:00am 10.5 5.3 3.5 62 3.1 S 20 33 11 18 1024.9 1025.0 1.2
31/05:30am 10.6 6.0 3.6 62 3.1 S 17 24 9 13 1024.7 - 1.2
31/05:00am 10.9 6.8 4.6 65 2.8 S 15 22 8 12 1024.5 - 1.2
31/04:30am 10.8 6.5 5.3 69 2.5 S 17 26 9 14 1024.5 - 1.2
31/04:00am 11.1 6.9 3.9 61 3.2 S 15 22 8 12 1024.4 - 1.2
31/03:30am 11.2 7.7 3.7 60 3.3 S 11 17 6 9 1024.4 - 1.2
31/03:00am 11.5 7.4 4.3 61 3.2 S 15 22 8 12 1024.2 1024.3 1.2
31/02:30am 11.5 7.7 4.0 60 3.4 S 13 22 7 12 1024.2 - 1.2
31/02:00am 11.6 6.6 3.6 58 3.6 SSW 19 28 10 15 1024.2 - 1.2
31/01:30am 11.7 7.6 4.2 60 3.4 S 15 22 8 12 1024.0 - 1.2
31/01:00am 11.9 7.8 4.4 60 3.4 SSW 15 22 8 12 1023.8 - 1.2
31/12:30am 11.9 9.0 4.9 62 3.2 S 9 13 5 7 1023.6 - 1.2
31/12:00am 11.9 7.8 4.4 60 3.4 SSW 15 22 8 12 1023.5 1023.6 1.2
 
Date/Time
WST
Temp
°C
App
Temp
°C
Dew
Point
Rel
Hum
%
Delta-T
°C
Wind Press
QNH
hPa
Press
MSL
hPa
Rain
since 9 am
mm
Dir
 
Spd
km/h
Gust
km/h
Spd
kts
Gust
kts
30/11:30pm 12.1 8.1 4.8 61 3.4 SSW 15 22 8 12 1023.5 - 1.2
30/11:00pm 12.2 7.3 5.1 62 3.3 SSW 20 33 11 18 1023.6 - 1.2
30/10:30pm 12.3 8.4 5.5 63 3.2 SSW 15 26 8 14 1023.4 - 1.2
30/10:00pm 12.4 8.2 5.6 63 3.2 SW 17 32 9 17 1023.0 - 1.2
30/09:30pm 12.7 8.3 6.5 66 3.0 SW 19 32 10 17 1022.5 - 1.2
30/09:00pm 13.0 8.6 8.9 76 2.1 SW 22 33 12 18 1022.0 1022.2 1.2
30/08:30pm 13.1 10.2 11.0 87 1.1 WSW 17 30 9 16 1021.8 - 1.0
30/08:00pm 13.7 10.2 10.1 79 1.9 WSW 19 32 10 17 1021.5 - 0.6
30/07:30pm 14.2 11.7 9.6 74 2.4 WSW 13 24 7 13 1021.2 - 0.6
30/07:00pm 14.5 11.8 9.1 70 2.8 WSW 13 20 7 11 1020.9 - 0.6
30/06:30pm 14.4 11.5 9.6 73 2.5 SW 15 28 8 15 1021.0 - 0.6
30/06:00pm 14.5 11.8 8.9 69 2.8 WSW 13 24 7 13 1020.8 1021.0 0.6
30/05:30pm 14.4 11.3 9.0 70 2.8 SW 15 24 8 13 1020.6 - 0.6
30/05:00pm 14.7 10.9 8.9 68 3.0 WSW 19 32 10 17 1020.4 - 0.6
30/04:30pm 15.1 11.7 9.2 68 3.0 WSW 17 28 9 15 1020.3 - 0.6
30/04:00pm 15.5 11.3 9.6 68 3.1 WSW 22 39 12 21 1020.0 - 0.6
30/03:30pm 15.6 11.3 9.3 66 3.3 WSW 22 33 12 18 1019.8 - 0.6
30/03:00pm 15.3 12.1 11.1 76 2.2 WSW 19 32 10 17 1019.5 1019.7 0.6
30/02:30pm 15.0 12.0 12.1 83 1.6 WSW 19 32 10 17 1019.1 - 0.6
30/02:00pm 14.3 11.5 12.7 90 0.9 WSW 19 33 10 18 1019.2 - 0.6
30/01:30pm 16.3 12.7 11.9 75 2.4 W 22 37 12 20 1019.1 - 0.2
30/01:00pm 15.9 13.2 11.7 76 2.3 W 17 32 9 17 1019.2 - 0.2
30/12:37pm 16.4 11.6 11.6 73 2.6 W 28 46 15 25 1019.2 - 0.2
30/12:30pm 17.6 13.1 10.0 61 4.0 W 24 39 13 21 1019.2 - 0.2

Other Formats:

Comma delimited format used in spreadsheet applications
http://www.bom.gov.au/fwo/IDW60801/IDW60801.95641.axf

JavaScript Object Notation format (JSON) in row-major order
http://www.bom.gov.au/fwo/IDW60801/IDW60801.95641.json